Time,TemperatureF,DewpointF,PressureIn,WindDirection,WindDirectionDegrees,WindSpeedMPH,WindSpeedGustMPH,Humidity,HourlyPrecipIn,Conditions,Clouds,dailyrainin,SoftwareType,DateUTC
2013-01-10 00:04:00,41.5,29.1,30.05,SW,221,1.0,13.0,61,0.00,,OVC075,0.00,VWS V14.00,2013-01-10 05:04:00,
2013-01-10 00:09:00,41.7,28.9,30.05,NNW,335,2.0,8.0,60,0.00,,OVC075,0.00,VWS V14.00,2013-01-10 05:09:00,
2013-01-10 00:14:00,41.7,28.4,30.05,WSW,258,2.0,10.0,59,0.00,,OVC075,0.00,VWS V14.00,2013-01-10 05:14:00,
2013-01-10 00:19:00,41.7,28.9,30.05,SSE,162,2.0,10.0,60,0.00,,OVC075,0.00,VWS V14.00,2013-01-10 05:19:00,
2013-01-10 00:24:00,41.5,28.3,30.05,NNW,341,2.0,10.0,59,0.00,,OVC075,0.00,VWS V14.00,2013-01-10 05:24:00,
2013-01-10 00:29:00,41.4,28.2,30.05,WSW,250,3.0,10.0,59,0.00,,OVC075,0.00,VWS V14.00,2013-01-10 05:29:00,
2013-01-10 00:34:00,41.4,27.8,30.05,West,270,2.0,10.0,58,0.00,,OVC075,0.00,VWS V14.00,2013-01-10 05:34:00,
2013-01-10 00:39:00,41.4,27.8,30.05,NW,307,4.0,10.0,58,0.00,,OVC075,0.00,VWS V14.00,2013-01-10 05:39:00,
2013-01-10 00:44:00,41.4,27.8,30.05,SSW,192,2.0,10.0,58,0.00,,OVC075,0.00,VWS V14.00,2013-01-10 05:44:00,
2013-01-10 00:49:00,41.4,27.8,30.05,WSW,241,2.0,10.0,58,0.00,,OVC075,0.00,VWS V14.00,2013-01-10 05:49:00,
2013-01-10 00:54:00,41.4,27.8,30.05,NW,310,3.0,10.0,58,0.00,,OVC075,0.00,VWS V14.00,2013-01-10 05:54:00,
2013-01-10 00:59:00,41.4,27.8,30.06,SW,223,1.0,10.0,58,0.00,,OVC075,0.00,VWS V14.00,2013-01-10 05:59:00,
2013-01-10 01:04:00,41.1,27.5,30.06,NW,321,1.0,8.0,58,0.00,,CLR,0.00,VWS V14.00,2013-01-10 06:04:00,
2013-01-10 01:09:00,41.2,28.0,30.06,NW,307,2.0,9.0,59,0.00,,CLR,0.00,VWS V14.00,2013-01-10 06:09:00,
2013-01-10 01:14:00,41.1,27.9,30.05,NW,305,7.0,9.0,59,0.00,,CLR,0.00,VWS V14.00,2013-01-10 06:14:00,
2013-01-10 01:19:00,41.1,27.9,30.05,SW,230,2.0,9.0,59,0.00,,CLR,0.00,VWS V14.00,2013-01-10 06:19:00,
2013-01-10 01:24:00,41.1,27.9,30.05,WSW,240,5.0,14.0,59,0.00,,CLR,0.00,VWS V14.00,2013-01-10 06:24:00,
2013-01-10 01:29:00,41.3,28.1,30.05,WNW,299,5.0,15.0,59,0.00,,CLR,0.00,VWS V14.00,2013-01-10 06:29:00,
2013-01-10 01:34:00,41.1,28.3,30.05,NW,318,7.0,10.0,60,0.00,,CLR,0.00,VWS V14.00,2013-01-10 06:34:00,
2013-01-10 01:39:00,41.1,28.3,30.06,NNW,342,1.0,10.0,60,0.00,,CLR,0.00,VWS V14.00,2013-01-10 06:39:00,
2013-01-10 01:44:00,41.3,28.5,30.07,WNW,295,23.0,23.0,60,0.00,,CLR,0.00,VWS V14.00,2013-01-10 06:44:00,
2013-01-10 01:49:00,41.5,28.7,30.07,WNW,300,11.0,23.0,60,0.00,,CLR,0.00,VWS V14.00,2013-01-10 06:49:00,
2013-01-10 01:54:00,41.5,29.1,30.07,NW,315,2.0,27.0,61,0.00,,CLR,0.00,VWS V14.00,2013-01-10 06:54:00,
2013-01-10 01:59:00,41.2,29.2,30.07,NW,323,3.0,27.0,62,0.00,,CLR,0.00,VWS V14.00,2013-01-10 06:59:00,
2013-01-10 02:04:00,41.3,28.9,30.07,NW,317,9.0,28.0,61,0.00,,SCT065,0.00,VWS V14.00,2013-01-10 07:04:00,
2013-01-10 02:09:00,41.1,28.7,30.08,SW,233,3.0,28.0,61,0.00,,SCT065,0.00,VWS V14.00,2013-01-10 07:09:00,
2013-01-10 02:14:00,40.8,28.8,30.09,West,276,11.0,28.0,62,0.00,,SCT065,0.00,VWS V14.00,2013-01-10 07:14:00,
2013-01-10 02:19:00,40.5,28.5,30.09,NW,324,3.0,28.0,62,0.00,,SCT065,0.00,VWS V14.00,2013-01-10 07:19:00,
2013-01-10 02:24:00,40.3,29.1,30.09,NNW,331,6.0,28.0,64,0.00,,SCT065,0.00,VWS V14.00,2013-01-10 07:24:00,
2013-01-10 02:29:00,40.0,28.8,30.10,NNW,333,7.0,28.0,64,0.00,,SCT065,0.00,VWS V14.00,2013-01-10 07:29:00,
2013-01-10 02:34:00,39.8,28.6,30.10,NW,312,4.0,19.0,64,0.00,,SCT065,0.00,VWS V14.00,2013-01-10 07:34:00,
2013-01-10 02:39:00,39.8,28.6,30.11,SW,222,7.0,19.0,64,0.00,,SCT065,0.00,VWS V14.00,2013-01-10 07:39:00,
2013-01-10 02:44:00,39.8,28.6,30.10,NNW,336,6.0,26.0,64,0.00,,SCT065,0.00,VWS V14.00,2013-01-10 07:44:00,
2013-01-10 02:49:00,39.7,28.5,30.10,West,266,3.0,26.0,64,0.00,,SCT065,0.00,VWS V14.00,2013-01-10 07:49:00,
2013-01-10 02:54:00,39.5,28.7,30.11,WNW,282,2.0,33.0,65,0.00,,SCT065,0.00,VWS V14.00,2013-01-10 07:54:00,
2013-01-10 02:59:00,39.4,28.6,30.11,North,350,4.0,33.0,65,0.00,,SCT065,0.00,VWS V14.00,2013-01-10 07:59:00,
2013-01-10 03:04:00,39.2,28.4,30.11,NNW,345,4.0,13.0,65,0.00,,CLR,0.00,VWS V14.00,2013-01-10 08:04:00,
2013-01-10 03:09:00,39.1,28.7,30.11,North,358,15.0,18.0,66,0.00,,CLR,0.00,VWS V14.00,2013-01-10 08:09:00,
2013-01-10 03:14:00,39.3,28.5,30.12,NNW,334,4.0,18.0,65,0.00,,CLR,0.00,VWS V14.00,2013-01-10 08:14:00,
2013-01-10 03:19:00,39.1,28.3,30.12,WNW,288,12.0,18.0,65,0.00,,CLR,0.00,VWS V14.00,2013-01-10 08:19:00,
2013-01-10 03:24:00,39.3,28.2,30.12,WSW,246,18.0,23.0,64,0.00,,CLR,0.00,VWS V14.00,2013-01-10 08:24:00,
2013-01-10 03:29:00,39.5,28.4,30.11,West,272,9.0,23.0,64,0.00,,CLR,0.00,VWS V14.00,2013-01-10 08:29:00,
2013-01-10 03:34:00,39.5,27.6,30.12,South,177,11.0,16.0,62,0.00,,CLR,0.00,VWS V14.00,2013-01-10 08:34:00,
2013-01-10 03:39:00,39.4,27.5,30.12,NNW,330,13.0,16.0,62,0.00,,CLR,0.00,VWS V14.00,2013-01-10 08:39:00,
2013-01-10 03:44:00,39.4,27.9,30.12,WNW,300,4.0,24.0,63,0.00,,CLR,0.00,VWS V14.00,2013-01-10 08:44:00,
2013-01-10 03:49:00,39.5,27.2,30.12,West,270,3.0,24.0,61,0.00,,CLR,0.00,VWS V14.00,2013-01-10 08:49:00,
2013-01-10 03:54:00,39.5,27.2,30.13,NW,314,1.0,24.0,61,0.00,,CLR,0.00,VWS V14.00,2013-01-10 08:54:00,
2013-01-10 03:59:00,39.4,27.1,30.14,ENE,62,7.0,24.0,61,0.00,,CLR,0.00,VWS V14.00,2013-01-10 08:59:00,
2013-01-10 04:04:00,39.3,27.0,30.15,WNW,283,7.0,14.0,61,0.00,,CLR,0.00,VWS V14.00,2013-01-10 09:04:00,
2013-01-10 04:09:00,39.2,26.9,30.14,WSW,255,4.0,14.0,61,0.00,,CLR,0.00,VWS V14.00,2013-01-10 09:09:00,
2013-01-10 04:14:00,39.4,26.7,30.15,NNW,344,7.0,24.0,60,0.00,,CLR,0.00,VWS V14.00,2013-01-10 09:14:00,
2013-01-10 04:19:00,39.5,26.8,30.15,WNW,284,2.0,24.0,60,0.00,,CLR,0.00,VWS V14.00,2013-01-10 09:19:00,
2013-01-10 04:24:00,39.4,26.7,30.15,NW,325,8.0,24.0,60,0.00,,CLR,0.00,VWS V14.00,2013-01-10 09:24:00,
2013-01-10 04:29:00,39.3,26.6,30.16,West,270,3.0,24.0,60,0.00,,CLR,0.00,VWS V14.00,2013-01-10 09:29:00,
2013-01-10 04:34:00,39.0,26.7,30.16,North,0,4.0,10.0,61,0.00,,CLR,0.00,VWS V14.00,2013-01-10 09:34:00,
2013-01-10 04:39:00,38.9,26.6,30.16,North,351,8.0,13.0,61,0.00,,CLR,0.00,VWS V14.00,2013-01-10 09:39:00,
2013-01-10 04:44:00,39.0,26.3,30.16,NE,48,10.0,15.0,60,0.00,,CLR,0.00,VWS V14.00,2013-01-10 09:44:00,
2013-01-10 04:49:00,39.0,26.3,30.16,NNW,344,3.0,15.0,60,0.00,,CLR,0.00,VWS V14.00,2013-01-10 09:49:00,
2013-01-10 04:54:00,39.1,26.4,30.16,NNW,341,1.0,21.0,60,0.00,,CLR,0.00,VWS V14.00,2013-01-10 09:54:00,
2013-01-10 04:59:00,39.0,26.3,30.16,NNW,334,4.0,21.0,60,0.00,,CLR,0.00,VWS V14.00,2013-01-10 09:59:00,
2013-01-10 05:04:00,38.8,26.1,30.17,North,359,4.0,11.0,60,0.00,,CLR,0.00,VWS V14.00,2013-01-10 10:04:00,
2013-01-10 05:09:00,38.8,26.1,30.18,NW,320,2.0,11.0,60,0.00,,CLR,0.00,VWS V14.00,2013-01-10 10:09:00,
2013-01-10 05:14:00,38.6,25.5,30.19,North,355,4.0,16.0,59,0.00,,CLR,0.00,VWS V14.00,2013-01-10 10:14:00,
2013-01-10 05:19:00,38.8,25.7,30.19,NNW,345,2.0,16.0,59,0.00,,CLR,0.00,VWS V14.00,2013-01-10 10:19:00,
2013-01-10 05:24:00,39.0,25.5,30.19,NNW,345,7.0,19.0,58,0.00,,CLR,0.00,VWS V14.00,2013-01-10 10:24:00,
2013-01-10 05:29:00,39.0,25.5,30.20,ESE,103,5.0,19.0,58,0.00,,CLR,0.00,VWS V14.00,2013-01-10 10:29:00,
2013-01-10 05:34:00,39.0,25.1,30.20,NNW,327,4.0,13.0,57,0.00,,CLR,0.00,VWS V14.00,2013-01-10 10:34:00,
2013-01-10 05:39:00,38.8,24.9,30.21,NNE,15,3.0,13.0,57,0.00,,CLR,0.00,VWS V14.00,2013-01-10 10:39:00,
2013-01-10 05:44:00,38.7,24.8,30.22,NNW,343,5.0,13.0,57,0.00,,CLR,0.00,VWS V14.00,2013-01-10 10:44:00,
2013-01-10 05:49:00,38.7,24.8,30.22,WNW,301,3.0,13.0,57,0.00,,CLR,0.00,VWS V14.00,2013-01-10 10:49:00,
2013-01-10 05:54:00,38.7,24.8,30.23,NNW,338,3.0,13.0,57,0.00,,CLR,0.00,VWS V14.00,2013-01-10 10:54:00,
2013-01-10 05:59:00,38.4,24.9,30.23,NW,321,7.0,13.0,58,0.00,,CLR,0.00,VWS V14.00,2013-01-10 10:59:00,
2013-01-10 06:04:00,38.3,24.4,30.23,NNW,331,5.0,8.0,57,0.00,,CLR,0.00,VWS V14.00,2013-01-10 11:04:00,
2013-01-10 06:09:00,38.1,24.6,30.24,North,349,4.0,8.0,58,0.00,,CLR,0.00,VWS V14.00,2013-01-10 11:09:00,
2013-01-10 06:14:00,38.0,24.5,30.24,NW,326,4.0,8.0,58,0.00,,CLR,0.00,VWS V14.00,2013-01-10 11:14:00,
2013-01-10 06:19:00,37.7,24.3,30.24,NW,321,2.0,8.0,58,0.00,,CLR,0.00,VWS V14.00,2013-01-10 11:19:00,
2013-01-10 06:24:00,37.5,24.1,30.25,SE,138,7.0,8.0,58,0.00,,CLR,0.00,VWS V14.00,2013-01-10 11:24:00,
2013-01-10 06:29:00,37.4,24.4,30.25,NNW,330,2.0,8.0,59,0.00,,CLR,0.00,VWS V14.00,2013-01-10 11:29:00,
2013-01-10 06:34:00,37.1,24.1,30.25,NNW,331,3.0,7.0,59,0.00,,CLR,0.00,VWS V14.00,2013-01-10 11:34:00,
2013-01-10 06:39:00,36.8,23.8,30.25,NNW,331,1.0,7.0,59,0.00,,CLR,0.00,VWS V14.00,2013-01-10 11:39:00,
2013-01-10 06:44:00,36.5,24.0,30.26,NNW,339,3.0,10.0,60,0.00,,CLR,0.00,VWS V14.00,2013-01-10 11:44:00,
2013-01-10 06:49:00,36.4,23.9,30.25,NNW,337,6.0,11.0,60,0.00,,CLR,0.00,VWS V14.00,2013-01-10 11:49:00,
2013-01-10 06:54:00,36.3,24.1,30.26,NW,325,4.0,11.0,61,0.00,,CLR,0.00,VWS V14.00,2013-01-10 11:54:00,
2013-01-10 06:59:00,36.5,24.0,30.26,SSE,148,11.0,12.0,60,0.00,,CLR,0.00,VWS V14.00,2013-01-10 11:59:00,
2013-01-10 07:04:00,36.8,24.2,30.26,North,352,4.0,12.0,60,0.00,,CLR,0.00,VWS V14.00,2013-01-10 12:04:00,
2013-01-10 07:09:00,37.1,23.7,30.27,West,279,2.0,15.0,58,0.00,,CLR,0.00,VWS V14.00,2013-01-10 12:09:00,
2013-01-10 07:14:00,37.1,24.1,30.26,NNW,339,10.0,15.0,59,0.00,,CLR,0.00,VWS V14.00,2013-01-10 12:14:00,
2013-01-10 07:19:00,37.3,23.9,30.27,North,358,5.0,15.0,58,0.00,,CLR,0.00,VWS V14.00,2013-01-10 12:19:00,
2013-01-10 07:24:00,37.1,23.7,30.27,North,356,4.0,15.0,58,0.00,,CLR,0.00,VWS V14.00,2013-01-10 12:24:00,
2013-01-10 07:29:00,37.0,23.6,30.27,NW,323,5.0,15.0,58,0.00,,CLR,0.00,VWS V14.00,2013-01-10 12:29:00,
2013-01-10 07:34:00,36.7,23.7,30.27,NW,322,4.0,6.0,59,0.00,,CLR,0.00,VWS V14.00,2013-01-10 12:34:00,
2013-01-10 07:39:00,36.7,24.1,30.28,North,355,3.0,10.0,60,0.00,,CLR,0.00,VWS V14.00,2013-01-10 12:39:00,
2013-01-10 07:44:00,36.7,24.1,30.28,NW,319,3.0,14.0,60,0.00,,CLR,0.00,VWS V14.00,2013-01-10 12:44:00,
2013-01-10 07:49:00,36.5,24.0,30.28,WNW,284,2.0,14.0,60,0.00,,CLR,0.00,VWS V14.00,2013-01-10 12:49:00,
2013-01-10 07:54:00,36.5,24.3,30.29,NNW,344,2.0,14.0,61,0.00,,CLR,0.00,VWS V14.00,2013-01-10 12:54:00,
2013-01-10 07:59:00,36.4,24.2,30.30,North,351,11.0,14.0,61,0.00,,CLR,0.00,VWS V14.00,2013-01-10 12:59:00,
2013-01-10 08:04:00,36.7,24.1,30.29,NNW,334,7.0,19.0,60,0.00,,CLR,0.00,VWS V14.00,2013-01-10 13:04:00,
2013-01-10 08:09:00,36.8,24.2,30.30,NNW,336,3.0,19.0,60,0.00,,CLR,0.00,VWS V14.00,2013-01-10 13:09:00,
2013-01-10 08:14:00,36.7,24.5,30.30,NNW,346,2.0,19.0,61,0.00,,CLR,0.00,VWS V14.00,2013-01-10 13:14:00,
2013-01-10 08:19:00,36.8,24.6,30.30,NW,316,1.0,19.0,61,0.00,,CLR,0.00,VWS V14.00,2013-01-10 13:19:00,
2013-01-10 08:24:00,36.8,24.6,30.30,NNW,336,1.0,19.0,61,0.00,,CLR,0.00,VWS V14.00,2013-01-10 13:24:00,
2013-01-10 08:29:00,37.0,24.4,30.31,NW,321,1.0,19.0,60,0.00,,CLR,0.00,VWS V14.00,2013-01-10 13:29:00,
2013-01-10 08:34:00,37.1,24.5,30.31,NNW,327,4.0,12.0,60,0.00,,CLR,0.00,VWS V14.00,2013-01-10 13:34:00,
2013-01-10 08:39:00,37.3,25.1,30.32,NW,306,7.0,12.0,61,0.00,,CLR,0.00,VWS V14.00,2013-01-10 13:39:00,
2013-01-10 08:44:00,37.4,24.8,30.32,NNW,341,3.0,12.0,60,0.00,,CLR,0.00,VWS V14.00,2013-01-10 13:44:00,
2013-01-10 08:49:00,37.7,25.1,30.32,NW,304,1.0,12.0,60,0.00,,CLR,0.00,VWS V14.00,2013-01-10 13:49:00,
2013-01-10 08:54:00,37.7,25.1,30.32,North,352,3.0,12.0,60,0.00,,CLR,0.00,VWS V14.00,2013-01-10 13:54:00,
2013-01-10 08:59:00,37.8,25.2,30.33,NNW,330,8.0,15.0,60,0.00,,CLR,0.00,VWS V14.00,2013-01-10 13:59:00,
2013-01-10 09:04:00,38.0,25.0,30.33,NW,318,8.0,8.0,59,0.00,,CLR,0.00,VWS V14.00,2013-01-10 14:04:00,
2013-01-10 09:09:00,38.1,25.1,30.33,North,355,5.0,14.0,59,0.00,,CLR,0.00,VWS V14.00,2013-01-10 14:09:00,
2013-01-10 09:14:00,38.3,24.8,30.33,NW,324,1.0,14.0,58,0.00,,CLR,0.00,VWS V14.00,2013-01-10 14:14:00,
2013-01-10 09:19:00,38.4,24.9,30.33,NW,322,4.0,14.0,58,0.00,,CLR,0.00,VWS V14.00,2013-01-10 14:19:00,
2013-01-10 09:24:00,38.7,25.2,30.33,West,275,5.0,14.0,58,0.00,,CLR,0.00,VWS V14.00,2013-01-10 14:24:00,
2013-01-10 09:29:00,38.8,25.3,30.33,NNW,331,7.0,14.0,58,0.00,,CLR,0.00,VWS V14.00,2013-01-10 14:29:00,
2013-01-10 09:34:00,39.0,25.1,30.33,NW,316,3.0,14.0,57,0.00,,CLR,0.00,VWS V14.00,2013-01-10 14:34:00,
2013-01-10 09:39:00,39.3,25.4,30.33,North,0,2.0,14.0,57,0.00,,CLR,0.00,VWS V14.00,2013-01-10 14:39:00,
2013-01-10 09:44:00,39.4,25.5,30.33,NNW,339,3.0,14.0,57,0.00,,CLR,0.00,VWS V14.00,2013-01-10 14:44:00,
2013-01-10 09:49:00,39.7,25.7,30.33,NW,316,6.0,14.0,57,0.00,,CLR,0.00,VWS V14.00,2013-01-10 14:49:00,
2013-01-10 09:54:00,39.8,25.4,30.33,West,264,3.0,14.0,56,0.00,,CLR,0.00,VWS V14.00,2013-01-10 14:54:00,
2013-01-10 09:59:00,40.1,24.8,30.34,WNW,284,9.0,22.0,54,0.00,,CLR,0.00,VWS V14.00,2013-01-10 14:59:00,
2013-01-10 10:04:00,40.3,25.0,30.34,NW,305,7.0,10.0,54,0.00,,CLR,0.00,VWS V14.00,2013-01-10 15:04:00,
2013-01-10 10:09:00,40.7,25.8,30.35,NW,322,4.0,10.0,55,0.00,,CLR,0.00,VWS V14.00,2013-01-10 15:09:00,
2013-01-10 10:14:00,40.8,25.0,30.35,NNW,334,16.0,19.0,53,0.00,,CLR,0.00,VWS V14.00,2013-01-10 15:14:00,
2013-01-10 10:19:00,40.8,25.5,30.34,SW,224,10.0,19.0,54,0.00,,CLR,0.00,VWS V14.00,2013-01-10 15:19:00,
2013-01-10 10:24:00,41.1,25.3,30.35,NW,309,3.0,19.0,53,0.00,,CLR,0.00,VWS V14.00,2013-01-10 15:24:00,
2013-01-10 10:29:00,41.3,25.5,30.35,NNW,329,6.0,19.0,53,0.00,,CLR,0.00,VWS V14.00,2013-01-10 15:29:00,
2013-01-10 10:34:00,41.3,25.5,30.35,NW,309,2.0,14.0,53,0.00,,CLR,0.00,VWS V14.00,2013-01-10 15:34:00,
2013-01-10 10:39:00,41.5,25.7,30.34,NW,325,5.0,14.0,53,0.00,,CLR,0.00,VWS V14.00,2013-01-10 15:39:00,
2013-01-10 10:44:00,41.5,25.7,30.34,NNW,330,5.0,14.0,53,0.00,,CLR,0.00,VWS V14.00,2013-01-10 15:44:00,
2013-01-10 10:49:00,41.7,25.4,30.34,North,356,6.0,17.0,52,0.00,,CLR,0.00,VWS V14.00,2013-01-10 15:49:00,
2013-01-10 10:54:00,41.5,25.2,30.34,West,267,5.0,18.0,52,0.00,,CLR,0.00,VWS V14.00,2013-01-10 15:54:00,
2013-01-10 10:59:00,41.5,25.7,30.33,WNW,293,6.0,18.0,53,0.00,,CLR,0.00,VWS V14.00,2013-01-10 15:59:00,
2013-01-10 11:04:00,41.7,25.4,30.33,WSW,249,4.0,13.0,52,0.00,,CLR,0.00,VWS V14.00,2013-01-10 16:04:00,
2013-01-10 11:09:00,41.7,25.4,30.33,NNW,334,2.0,17.0,52,0.00,,CLR,0.00,VWS V14.00,2013-01-10 16:09:00,
2013-01-10 11:14:00,42.1,26.2,30.33,North,355,0.0,17.0,53,0.00,,CLR,0.00,VWS V14.00,2013-01-10 16:14:00,
2013-01-10 11:19:00,42.5,26.1,30.33,South,184,7.0,17.0,52,0.00,,CLR,0.00,VWS V14.00,2013-01-10 16:19:00,
2013-01-10 11:24:00,42.8,25.9,30.32,North,0,5.0,17.0,51,0.00,,CLR,0.00,VWS V14.00,2013-01-10 16:24:00,
2013-01-10 11:29:00,42.8,26.4,30.33,WNW,289,10.0,17.0,52,0.00,,CLR,0.00,VWS V14.00,2013-01-10 16:29:00,
2013-01-10 11:34:00,42.8,25.9,30.32,SE,146,5.0,11.0,51,0.00,,CLR,0.00,VWS V14.00,2013-01-10 16:34:00,
2013-01-10 11:39:00,42.8,25.5,30.32,NW,325,2.0,16.0,50,0.00,,CLR,0.00,VWS V14.00,2013-01-10 16:39:00,
2013-01-10 11:44:00,43.1,25.7,30.32,NW,315,4.0,16.0,50,0.00,,CLR,0.00,VWS V14.00,2013-01-10 16:44:00,
2013-01-10 11:49:00,42.8,25.5,30.32,North,0,4.0,16.0,50,0.00,,CLR,0.00,VWS V14.00,2013-01-10 16:49:00,
2013-01-10 11:54:00,42.8,25.5,30.32,West,278,12.0,16.0,50,0.00,,CLR,0.00,VWS V14.00,2013-01-10 16:54:00,
2013-01-10 11:59:00,43.0,25.6,30.32,NW,310,2.0,18.0,50,0.00,,CLR,0.00,VWS V14.00,2013-01-10 16:59:00,
2013-01-10 12:04:00,43.1,25.7,30.32,NW,308,5.0,15.0,50,0.00,,CLR,0.00,VWS V14.00,2013-01-10 17:04:00,
2013-01-10 12:09:00,43.2,25.8,30.32,North,353,7.0,16.0,50,0.00,,CLR,0.00,VWS V14.00,2013-01-10 17:09:00,
2013-01-10 12:14:00,42.9,25.1,30.32,East,90,8.0,20.0,49,0.00,,CLR,0.00,VWS V14.00,2013-01-10 17:14:00,
2013-01-10 12:19:00,43.0,25.6,30.32,SSW,212,4.0,24.0,50,0.00,,CLR,0.00,VWS V14.00,2013-01-10 17:19:00,
2013-01-10 12:24:00,43.3,25.4,30.32,SW,216,3.0,26.0,49,0.00,,CLR,0.00,VWS V14.00,2013-01-10 17:24:00,
2013-01-10 12:29:00,43.2,25.4,30.32,NW,326,7.0,26.0,49,0.00,,CLR,0.00,VWS V14.00,2013-01-10 17:29:00,
2013-01-10 12:34:00,43.5,25.6,30.32,ESE,112,6.0,14.0,49,0.00,,CLR,0.00,VWS V14.00,2013-01-10 17:34:00,
2013-01-10 12:39:00,43.8,25.9,30.32,WNW,298,9.0,16.0,49,0.00,,CLR,0.00,VWS V14.00,2013-01-10 17:39:00,
2013-01-10 12:44:00,44.0,25.6,30.32,NNW,347,8.0,16.0,48,0.00,,CLR,0.00,VWS V14.00,2013-01-10 17:44:00,
2013-01-10 12:49:00,43.8,25.4,30.32,WSW,256,6.0,20.0,48,0.00,,CLR,0.00,VWS V14.00,2013-01-10 17:49:00,
2013-01-10 12:54:00,43.7,25.3,30.32,WSW,237,6.0,20.0,48,0.00,,CLR,0.00,VWS V14.00,2013-01-10 17:54:00,
2013-01-10 12:59:00,44.0,25.1,30.33,WNW,301,5.0,20.0,47,0.00,,CLR,0.00,VWS V14.00,2013-01-10 17:59:00,
2013-01-10 13:04:00,44.0,25.6,30.32,SW,232,10.0,13.0,48,0.00,,CLR,0.00,VWS V14.00,2013-01-10 18:04:00,
2013-01-10 13:09:00,44.0,25.6,30.33,North,353,4.0,13.0,48,0.00,,CLR,0.00,VWS V14.00,2013-01-10 18:09:00,
2013-01-10 13:14:00,44.0,25.6,30.33,NNW,337,13.0,19.0,48,0.00,,CLR,0.00,VWS V14.00,2013-01-10 18:14:00,
2013-01-10 13:19:00,44.0,25.6,30.33,North,0,4.0,20.0,48,0.00,,CLR,0.00,VWS V14.00,2013-01-10 18:19:00,
2013-01-10 13:24:00,44.1,25.7,30.34,NNW,345,24.0,24.0,48,0.00,,CLR,0.00,VWS V14.00,2013-01-10 18:24:00,
2013-01-10 13:29:00,43.8,24.9,30.34,North,1,2.0,24.0,47,0.00,,CLR,0.00,VWS V14.00,2013-01-10 18:29:00,
2013-01-10 13:34:00,44.1,25.2,30.34,North,357,4.0,14.0,47,0.00,,CLR,0.00,VWS V14.00,2013-01-10 18:34:00,
2013-01-10 13:39:00,44.1,25.2,30.34,West,275,4.0,14.0,47,0.00,,CLR,0.00,VWS V14.00,2013-01-10 18:39:00,
2013-01-10 13:44:00,43.8,24.9,30.34,NW,326,3.0,18.0,47,0.00,,CLR,0.00,VWS V14.00,2013-01-10 18:44:00,
2013-01-10 13:49:00,43.8,24.9,30.35,NNW,345,11.0,18.0,47,0.00,,CLR,0.00,VWS V14.00,2013-01-10 18:49:00,
2013-01-10 13:54:00,43.7,25.3,30.35,WNW,300,5.0,18.0,48,0.00,,CLR,0.00,VWS V14.00,2013-01-10 18:54:00,
2013-01-10 13:59:00,43.7,25.3,30.35,North,0,4.0,19.0,48,0.00,,CLR,0.00,VWS V14.00,2013-01-10 18:59:00,
2013-01-10 14:04:00,43.8,24.9,30.36,NNW,343,3.0,17.0,47,0.00,,CLR,0.00,VWS V14.00,2013-01-10 19:04:00,
2013-01-10 14:09:00,44.0,26.1,30.36,NNE,23,4.0,17.0,49,0.00,,CLR,0.00,VWS V14.00,2013-01-10 19:09:00,
2013-01-10 14:14:00,44.0,25.6,30.36,NNW,335,2.0,17.0,48,0.00,,CLR,0.00,VWS V14.00,2013-01-10 19:14:00,
2013-01-10 14:19:00,44.1,25.2,30.36,NW,321,3.0,17.0,47,0.00,,CLR,0.00,VWS V14.00,2013-01-10 19:19:00,
2013-01-10 14:24:00,44.1,26.2,30.37,NNW,332,4.0,17.0,49,0.00,,CLR,0.00,VWS V14.00,2013-01-10 19:24:00,
2013-01-10 14:29:00,44.0,25.1,30.37,WNW,285,7.0,17.0,47,0.00,,CLR,0.00,VWS V14.00,2013-01-10 19:29:00,
2013-01-10 14:34:00,43.8,24.9,30.37,ENE,65,5.0,14.0,47,0.00,,CLR,0.00,VWS V14.00,2013-01-10 19:34:00,
2013-01-10 14:39:00,43.7,25.3,30.37,North,0,3.0,14.0,48,0.00,,CLR,0.00,VWS V14.00,2013-01-10 19:39:00,
2013-01-10 14:44:00,43.4,26.0,30.37,WNW,299,3.0,14.0,50,0.00,,CLR,0.00,VWS V14.00,2013-01-10 19:44:00,
2013-01-10 14:49:00,43.2,25.4,30.38,NNW,334,3.0,14.0,49,0.00,,CLR,0.00,VWS V14.00,2013-01-10 19:49:00,
2013-01-10 14:54:00,43.0,25.6,30.38,North,352,8.0,16.0,50,0.00,,CLR,0.00,VWS V14.00,2013-01-10 19:54:00,
2013-01-10 14:59:00,43.0,25.2,30.38,North,354,5.0,17.0,49,0.00,,CLR,0.00,VWS V14.00,2013-01-10 19:59:00,
2013-01-10 15:04:00,42.8,25.0,30.38,NE,40,9.0,10.0,49,0.00,,CLR,0.00,VWS V14.00,2013-01-10 20:04:00,
2013-01-10 15:09:00,42.7,25.4,30.38,NNW,347,2.0,12.0,50,0.00,,CLR,0.00,VWS V14.00,2013-01-10 20:09:00,
2013-01-10 15:14:00,42.7,24.9,30.38,NNW,344,5.0,15.0,49,0.00,,CLR,0.00,VWS V14.00,2013-01-10 20:14:00,
2013-01-10 15:19:00,42.5,24.7,30.38,North,349,1.0,15.0,49,0.00,,CLR,0.00,VWS V14.00,2013-01-10 20:19:00,
2013-01-10 15:24:00,42.4,24.6,30.39,North,1,3.0,15.0,49,0.00,,CLR,0.00,VWS V14.00,2013-01-10 20:24:00,
2013-01-10 15:29:00,42.4,24.6,30.39,WSW,245,3.0,15.0,49,0.00,,CLR,0.00,VWS V14.00,2013-01-10 20:29:00,
2013-01-10 15:34:00,42.3,25.0,30.39,NW,326,9.0,11.0,50,0.00,,CLR,0.00,VWS V14.00,2013-01-10 20:34:00,
2013-01-10 15:39:00,42.3,24.5,30.39,North,358,1.0,11.0,49,0.00,,CLR,0.00,VWS V14.00,2013-01-10 20:39:00,
2013-01-10 15:44:00,42.1,24.8,30.39,NNW,339,2.0,11.0,50,0.00,,CLR,0.00,VWS V14.00,2013-01-10 20:44:00,
2013-01-10 15:49:00,42.0,24.7,30.40,NNW,347,2.0,11.0,50,0.00,,CLR,0.00,VWS V14.00,2013-01-10 20:49:00,
2013-01-10 15:54:00,41.8,25.0,30.40,ENE,64,9.0,14.0,51,0.00,,CLR,0.00,VWS V14.00,2013-01-10 20:54:00,
2013-01-10 16:00:00,41.7,24.9,30.39,NNW,337,4.0,14.0,51,0.00,,CLR,0.00,VWS V14.00,2013-01-10 21:00:00,
2013-01-10 16:04:00,41.4,24.6,30.39,NNW,336,4.0,9.0,51,0.00,,CLR,0.00,VWS V14.00,2013-01-10 21:04:00,
2013-01-10 16:09:00,41.4,24.6,30.40,NNW,346,3.0,11.0,51,0.00,,CLR,0.00,VWS V14.00,2013-01-10 21:09:00,
2013-01-10 16:14:00,41.3,24.5,30.41,East,89,3.0,11.0,51,0.00,,CLR,0.00,VWS V14.00,2013-01-10 21:14:00,
2013-01-10 16:19:00,41.1,24.8,30.41,NW,318,4.0,11.0,52,0.00,,CLR,0.00,VWS V14.00,2013-01-10 21:19:00,
2013-01-10 16:25:00,40.8,24.1,30.41,North,3,3.0,11.0,51,0.00,,CLR,0.00,VWS V14.00,2013-01-10 21:25:00,
2013-01-10 16:30:00,40.8,24.5,30.41,NW,319,5.0,11.0,52,0.00,,CLR,0.00,VWS V14.00,2013-01-10 21:30:00,
2013-01-10 16:35:00,40.5,24.3,30.42,NW,320,4.0,6.0,52,0.00,,CLR,0.00,VWS V14.00,2013-01-10 21:35:00,
2013-01-10 16:40:00,40.3,24.5,30.42,North,356,1.0,9.0,53,0.00,,CLR,0.00,VWS V14.00,2013-01-10 21:40:00,
2013-01-10 16:45:00,40.3,24.5,30.43,North,5,2.0,9.0,53,0.00,,CLR,0.00,VWS V14.00,2013-01-10 21:45:00,
2013-01-10 16:50:00,40.1,23.9,30.43,WSW,251,3.0,9.0,52,0.00,,CLR,0.00,VWS V14.00,2013-01-10 21:50:00,
2013-01-10 16:55:00,39.8,24.1,30.44,WNW,293,3.0,9.0,53,0.00,,CLR,0.00,VWS V14.00,2013-01-10 21:55:00,
2013-01-10 17:00:00,39.7,24.0,30.44,North,5,2.0,3.0,53,0.00,,CLR,0.00,VWS V14.00,2013-01-10 22:00:00,
2013-01-10 17:05:00,39.7,24.0,30.44,North,0,2.0,11.0,53,0.00,,CLR,0.00,VWS V14.00,2013-01-10 22:05:00,
2013-01-10 17:10:00,39.7,24.0,30.44,NW,315,2.0,11.0,53,0.00,,CLR,0.00,VWS V14.00,2013-01-10 22:10:00,
2013-01-10 17:15:00,39.5,23.8,30.43,WNW,302,5.0,11.0,53,0.00,,CLR,0.00,VWS V14.00,2013-01-10 22:15:00,
2013-01-10 17:20:00,39.4,23.7,30.44,NNW,329,7.0,11.0,53,0.00,,CLR,0.00,VWS V14.00,2013-01-10 22:20:00,
2013-01-10 17:25:00,39.4,23.7,30.44,NNE,31,0.0,11.0,53,0.00,,CLR,0.00,VWS V14.00,2013-01-10 22:25:00,
2013-01-10 17:30:00,39.3,23.6,30.44,NNE,32,1.0,3.0,53,0.00,,CLR,0.00,VWS V14.00,2013-01-10 22:30:00,
2013-01-10 17:35:00,39.1,23.4,30.45,NE,34,2.0,6.0,53,0.00,,CLR,0.00,VWS V14.00,2013-01-10 22:35:00,
2013-01-10 17:40:00,39.0,23.8,30.44,North,350,3.0,6.0,54,0.00,,CLR,0.00,VWS V14.00,2013-01-10 22:40:00,
2013-01-10 17:45:00,38.5,23.8,30.44,North,2,2.0,6.0,55,0.00,,CLR,0.00,VWS V14.00,2013-01-10 22:45:00,
2013-01-10 17:50:00,38.1,23.4,30.44,North,0,1.0,6.0,55,0.00,,CLR,0.00,VWS V14.00,2013-01-10 22:50:00,
2013-01-10 17:55:00,38.1,23.4,30.44,NW,320,1.0,8.0,55,0.00,,CLR,0.00,VWS V14.00,2013-01-10 22:55:00,
2013-01-10 18:00:00,38.1,23.4,30.45,NW,320,1.0,2.0,55,0.00,,CLR,0.00,VWS V14.00,2013-01-10 23:00:00,
2013-01-10 18:06:00,38.1,23.4,30.45,NNW,328,6.0,6.0,55,0.00,,CLR,0.00,VWS V14.00,2013-01-10 23:06:00,
2013-01-10 18:10:00,37.8,23.5,30.45,NNW,328,2.0,6.0,56,0.00,,CLR,0.00,VWS V14.00,2013-01-10 23:10:00,
2013-01-10 18:15:00,37.5,23.7,30.45,North,349,1.0,8.0,57,0.00,,CLR,0.00,VWS V14.00,2013-01-10 23:15:00,
2013-01-10 18:20:00,37.3,23.5,30.45,North,349,1.0,8.0,57,0.00,,CLR,0.00,VWS V14.00,2013-01-10 23:20:00,
2013-01-10 18:25:00,37.1,23.7,30.46,North,349,1.0,8.0,58,0.00,,CLR,0.00,VWS V14.00,2013-01-10 23:25:00,
2013-01-10 18:30:00,37.1,23.3,30.46,North,349,3.0,3.0,57,0.00,,CLR,0.00,VWS V14.00,2013-01-10 23:30:00,
2013-01-10 18:36:00,36.9,23.5,30.45,NNW,340,4.0,5.0,58,0.00,,CLR,0.00,VWS V14.00,2013-01-10 23:36:00,
2013-01-10 18:40:00,36.8,23.4,30.46,NNW,334,4.0,5.0,58,0.00,,CLR,0.00,VWS V14.00,2013-01-10 23:40:00,
2013-01-10 18:45:00,36.8,23.4,30.47,North,0,2.0,5.0,58,0.00,,CLR,0.00,VWS V14.00,2013-01-10 23:45:00,
2013-01-10 18:50:00,36.8,23.8,30.46,NW,307,4.0,5.0,59,0.00,,CLR,0.00,VWS V14.00,2013-01-10 23:50:00,
2013-01-10 18:56:00,36.7,23.7,30.47,NW,312,2.0,5.0,59,0.00,,CLR,0.00,VWS V14.00,2013-01-10 23:56:00,
2013-01-10 19:01:00,36.5,24.0,30.46,NW,313,2.0,4.0,60,0.00,,CLR,0.00,VWS V14.00,2013-01-11 00:01:00,
2013-01-10 19:06:00,36.4,23.9,30.45,NW,313,1.0,9.0,60,0.00,,CLR,0.00,VWS V14.00,2013-01-11 00:06:00,
2013-01-10 19:11:00,36.1,24.0,30.46,NW,313,0.0,9.0,61,0.00,,CLR,0.00,VWS V14.00,2013-01-11 00:11:00,
2013-01-10 19:16:00,36.0,23.9,30.46,NW,313,1.0,9.0,61,0.00,,CLR,0.00,VWS V14.00,2013-01-11 00:16:00,
2013-01-10 19:21:00,36.1,24.0,30.47,North,352,4.0,9.0,61,0.00,,CLR,0.00,VWS V14.00,2013-01-11 00:21:00,
2013-01-10 19:26:00,36.0,23.9,30.46,NNW,340,4.0,10.0,61,0.00,,CLR,0.00,VWS V14.00,2013-01-11 00:26:00,
2013-01-10 19:31:00,36.0,23.9,30.47,NNW,341,1.0,6.0,61,0.00,,CLR,0.00,VWS V14.00,2013-01-11 00:31:00,
2013-01-10 19:36:00,35.8,23.7,30.47,NW,311,2.0,6.0,61,0.00,,CLR,0.00,VWS V14.00,2013-01-11 00:36:00,
2013-01-10 19:41:00,36.0,23.9,30.48,NW,315,1.0,6.0,61,0.00,,CLR,0.00,VWS V14.00,2013-01-11 00:41:00,
2013-01-10 19:46:00,35.7,23.6,30.48,NW,315,1.0,6.0,61,0.00,,CLR,0.00,VWS V14.00,2013-01-11 00:46:00,
2013-01-10 19:51:00,35.4,23.7,30.48,NW,315,1.0,6.0,62,0.00,,CLR,0.00,VWS V14.00,2013-01-11 00:51:00,
2013-01-10 19:56:00,35.3,23.6,30.48,NW,315,2.0,6.0,62,0.00,,CLR,0.00,VWS V14.00,2013-01-11 00:56:00,
2013-01-10 20:01:00,34.5,23.2,30.48,NW,315,0.0,3.0,63,0.00,,CLR,0.00,VWS V14.00,2013-01-11 01:01:00,
2013-01-10 20:06:00,34.3,23.4,30.49,NW,315,2.0,3.0,64,0.00,,CLR,0.00,VWS V14.00,2013-01-11 01:06:00,
2013-01-10 20:11:00,34.1,23.2,30.48,NW,315,0.0,3.0,64,0.00,,CLR,0.00,VWS V14.00,2013-01-11 01:11:00,
2013-01-10 20:16:00,34.1,23.2,30.49,NW,315,2.0,4.0,64,0.00,,CLR,0.00,VWS V14.00,2013-01-11 01:16:00,
2013-01-10 20:21:00,33.8,23.3,30.49,NW,315,2.0,5.0,65,0.00,,CLR,0.00,VWS V14.00,2013-01-11 01:21:00,
2013-01-10 20:26:00,33.3,23.2,30.48,NW,315,2.0,5.0,66,0.00,,CLR,0.00,VWS V14.00,2013-01-11 01:26:00,
2013-01-10 20:31:00,32.7,23.3,30.49,NW,315,1.0,3.0,68,0.00,,CLR,0.00,VWS V14.00,2013-01-11 01:31:00,
2013-01-10 20:36:00,32.4,23.0,30.49,NW,315,1.0,5.0,68,0.00,,CLR,0.00,VWS V14.00,2013-01-11 01:36:00,
2013-01-10 20:41:00,33.0,23.2,30.49,NW,315,1.0,5.0,67,0.00,,CLR,0.00,VWS V14.00,2013-01-11 01:41:00,
2013-01-10 20:46:00,33.1,23.0,30.49,NW,315,2.0,5.0,66,0.00,,CLR,0.00,VWS V14.00,2013-01-11 01:46:00,
2013-01-10 20:51:00,32.7,23.0,30.50,NW,315,1.0,5.0,67,0.00,,CLR,0.00,VWS V14.00,2013-01-11 01:51:00,
2013-01-10 20:57:00,32.6,22.9,30.50,NW,315,1.0,5.0,67,0.00,,CLR,0.00,VWS V14.00,2013-01-11 01:57:00,
2013-01-10 21:02:00,32.2,22.8,30.50,NW,315,1.0,3.0,68,0.00,,CLR,0.00,VWS V14.00,2013-01-11 02:02:00,
2013-01-10 21:07:00,31.9,22.9,30.50,NW,315,0.0,3.0,69,0.00,,CLR,0.00,VWS V14.00,2013-01-11 02:07:00,
2013-01-10 21:12:00,31.6,23.0,30.51,NW,315,1.0,4.0,70,0.00,,CLR,0.00,VWS V14.00,2013-01-11 02:12:00,
2013-01-10 21:17:00,31.6,22.6,30.52,NW,315,1.0,4.0,69,0.00,,CLR,0.00,VWS V14.00,2013-01-11 02:17:00,
2013-01-10 21:22:00,31.5,23.2,30.52,NW,315,0.0,4.0,71,0.00,,CLR,0.00,VWS V14.00,2013-01-11 02:22:00,
2013-01-10 21:27:00,31.7,23.0,30.51,NW,315,1.0,4.0,70,0.00,,CLR,0.00,VWS V14.00,2013-01-11 02:27:00,
2013-01-10 21:32:00,31.7,23.0,30.51,NW,315,4.0,4.0,70,0.00,,CLR,0.00,VWS V14.00,2013-01-11 02:32:00,
2013-01-10 21:37:00,31.1,22.8,30.51,NW,316,1.0,5.0,71,0.00,,CLR,0.00,VWS V14.00,2013-01-11 02:37:00,
2013-01-10 21:43:00,31.0,22.7,30.52,NW,316,3.0,5.0,71,0.00,,CLR,0.00,VWS V14.00,2013-01-11 02:43:00,
2013-01-10 21:48:00,30.5,22.6,30.52,NW,316,1.0,5.0,72,0.00,,CLR,0.00,VWS V14.00,2013-01-11 02:48:00,
2013-01-10 21:53:00,31.1,23.1,30.52,NW,316,1.0,5.0,72,0.00,,CLR,0.00,VWS V14.00,2013-01-11 02:53:00,
2013-01-10 21:58:00,31.4,23.1,30.52,NW,316,2.0,5.0,71,0.00,,CLR,0.00,VWS V14.00,2013-01-11 02:58:00,
2013-01-10 22:03:00,31.1,22.8,30.52,NW,316,1.0,2.0,71,0.00,,CLR,0.00,VWS V14.00,2013-01-11 03:03:00,
2013-01-10 22:08:00,31.3,23.0,30.52,NW,316,0.0,5.0,71,0.00,,CLR,0.00,VWS V14.00,2013-01-11 03:08:00,
2013-01-10 22:13:00,31.3,23.0,30.52,NW,316,1.0,5.0,71,0.00,,CLR,0.00,VWS V14.00,2013-01-11 03:13:00,
2013-01-10 22:18:00,31.3,22.7,30.52,NW,316,0.0,5.0,70,0.00,,CLR,0.00,VWS V14.00,2013-01-11 03:18:00,
2013-01-10 22:23:00,31.3,22.7,30.51,NW,316,1.0,5.0,70,0.00,,CLR,0.00,VWS V14.00,2013-01-11 03:23:00,
2013-01-10 22:28:00,31.3,23.0,30.52,NW,316,1.0,5.0,71,0.00,,CLR,0.00,VWS V14.00,2013-01-11 03:28:00,
2013-01-10 22:33:00,31.0,22.7,30.53,NW,316,1.0,3.0,71,0.00,,CLR,0.00,VWS V14.00,2013-01-11 03:33:00,
2013-01-10 22:38:00,31.0,22.7,30.52,NW,316,0.0,3.0,71,0.00,,CLR,0.00,VWS V14.00,2013-01-11 03:38:00,
2013-01-10 22:43:00,31.0,22.7,30.53,NW,316,1.0,3.0,71,0.00,,CLR,0.00,VWS V14.00,2013-01-11 03:43:00,
2013-01-10 22:48:00,30.5,22.2,30.53,NW,316,1.0,3.0,71,0.00,,CLR,0.00,VWS V14.00,2013-01-11 03:48:00,
2013-01-10 22:53:00,30.4,22.8,30.53,North,5,3.0,5.0,73,0.00,,CLR,0.00,VWS V14.00,2013-01-11 03:53:00,
2013-01-10 22:58:00,30.7,22.8,30.53,North,5,1.0,5.0,72,0.00,,CLR,0.00,VWS V14.00,2013-01-11 03:58:00,
2013-01-10 23:03:00,31.0,23.0,30.52,North,5,1.0,4.0,72,0.00,,CLR,0.00,VWS V14.00,2013-01-11 04:03:00,
2013-01-10 23:08:00,31.3,23.3,30.52,North,358,1.0,5.0,72,0.00,,CLR,0.00,VWS V14.00,2013-01-11 04:08:00,
2013-01-10 23:13:00,31.3,23.0,30.52,North,358,2.0,5.0,71,0.00,,CLR,0.00,VWS V14.00,2013-01-11 04:13:00,
2013-01-10 23:18:00,31.3,23.0,30.52,North,358,1.0,5.0,71,0.00,,CLR,0.00,VWS V14.00,2013-01-11 04:18:00,
2013-01-10 23:23:00,31.3,22.7,30.52,North,358,1.0,5.0,70,0.00,,CLR,0.00,VWS V14.00,2013-01-11 04:23:00,
2013-01-10 23:28:00,31.3,23.0,30.51,North,358,1.0,5.0,71,0.00,,CLR,0.00,VWS V14.00,2013-01-11 04:28:00,
2013-01-10 23:33:00,31.0,22.7,30.51,North,358,1.0,4.0,71,0.00,,CLR,0.00,VWS V14.00,2013-01-11 04:33:00,
2013-01-10 23:38:00,30.7,22.4,30.51,North,358,1.0,4.0,71,0.00,,CLR,0.00,VWS V14.00,2013-01-11 04:38:00,
2013-01-10 23:43:00,30.4,22.5,30.51,North,358,1.0,4.0,72,0.00,,CLR,0.00,VWS V14.00,2013-01-11 04:43:00,
2013-01-10 23:48:00,30.2,22.3,30.51,North,358,1.0,4.0,72,0.00,,CLR,0.00,VWS V14.00,2013-01-11 04:48:00,
2013-01-10 23:53:00,30.0,22.4,30.51,North,358,1.0,4.0,73,0.00,,CLR,0.00,VWS V14.00,2013-01-11 04:53:00,
2013-01-10 23:58:00,30.0,22.1,30.51,North,358,0.0,4.0,72,0.00,,CLR,0.00,VWS V14.00,2013-01-11 04:58:00,